Stations météo

Publicité
Zugspitze, Allemagne (10961): Température de l'air & dewpoint: 14.06.2018 09:00:00 - 20.06.2018 09:00:00 (CEST)Zugspitze, Allemagne (10961): Vitesse du vent & gusts: 14.06.2018 09:00:00 - 20.06.2018 09:00:00 (CEST)Zugspitze, Allemagne (10961): Direction du vent: 14.06.2018 09:00:00 - 20.06.2018 09:00:00 (CEST)Zugspitze, Allemagne (10961): Ensoleillement: 14.06.2018 09:00:00 - 20.06.2018 09:00:00 (CEST)
Date & Time tt [°C] td [°C] ff [km/h] ff [knt] fx [km/h] fx [knt] dd sd [min]
20.06.2018 09:00:00 10,6 -0,3 8 4 13 7 ESE 60
20.06.2018 08:00:00 8,0 -0,5 8 5 12 7 ESE 60
20.06.2018 07:00:00 6,4 -0,7 11 6 19 10 NNE 60
20.06.2018 06:00:00 6,2 -0,6 11 6 18 10 NNE 25
20.06.2018 05:00:00 5,4 -0,7 10 5 20 11 N 0
20.06.2018 04:00:00 5,7 -0,8 14 7 24 13 N 0
20.06.2018 03:00:00 5,8 -2,0 15 8 24 13 NNE 0
20.06.2018 02:00:00 5,4 -2,0 11 6 23 13 ENE 0
20.06.2018 01:00:00 5,1 -4,7 14 8 31 17 N 0
20.06.2018 00:00:00 5,4 -4,4 24 13 30 16 N 0
19.06.2018 23:00:00 4,4 -0,1 12 7 18 10 N 0
19.06.2018 22:00:00 4,4 0,1 8 4 25 14 N 22
19.06.2018 21:00:00 4,5 0,5 14 7 22 12 N 26
19.06.2018 20:00:00 4,3 4,0 8 5 22 12 N 9
19.06.2018 19:00:00 3,8 3,2 9 5 20 11 N 5
19.06.2018 18:00:00 4,9 4,6 10 6 21 11 N 33
19.06.2018 17:00:00 3,9 2,1 10 5 24 13 N 24
19.06.2018 16:00:00 4,4 2,0 5 3 16 8 NNE 14
19.06.2018 15:00:00 5,2 3,6 4 2 9 5 N 7
19.06.2018 14:00:00 4,1 2,8 6 4 16 9 NNE 32
19.06.2018 13:00:00 3,1 1,1 10 5 24 13 N 50
19.06.2018 12:00:00 3,4 2,1 8 5 20 11 NNE 50
19.06.2018 11:00:00 3,5 -6,2 17 9 31 17 N 60
19.06.2018 10:00:00 1,9 -2,0 16 9 29 16 NNW 17
19.06.2018 09:00:00 0,9 0,9 11 6 22 12 NNW 0
19.06.2018 08:00:00 0,8 0,6 16 9 24 13 N 0
19.06.2018 07:00:00 0,5 0,4 16 8 32 17 N 11
19.06.2018 06:00:00 -0,2 -0,7 22 12 31 17 NNW 6
19.06.2018 05:00:00 0,4 0,3 21 11 29 15 N 0
19.06.2018 04:00:00 0,9 0,9 15 8 29 16 NNW 0
19.06.2018 03:00:00 1,0 0,9 22 12 32 17 N 0
19.06.2018 02:00:00 0,5 0,3 20 11 32 17 NW 0
19.06.2018 01:00:00 1,1 1,1 19 10 32 17 WNW 0
19.06.2018 00:00:00 1,3 1,3 19 11 28 15 WNW 0
18.06.2018 23:00:00 1,7 1,7 11 6 24 13 NNW 0
18.06.2018 22:00:00 1,7 1,6 13 7 25 14 N 0
18.06.2018 21:00:00 1,6 1,5 9 5 21 11 N 0
18.06.2018 20:00:00 1,6 1,5 11 6 23 12 N 0
18.06.2018 19:00:00 1,5 1,3 10 5 21 12 N 0
18.06.2018 18:00:00 1,6 1,1 9 5 16 9 N 1
18.06.2018 17:00:00 1,6 1,0 10 5 18 10 N 0
18.06.2018 16:00:00 1,9 1,5 8 4 11 6 W 0
18.06.2018 15:00:00 1,6 1,3 5 3 10 5 N 0
18.06.2018 14:00:00 1,5 0,9 5 3 18 10 N 0
18.06.2018 13:00:00 1,4 0,6 8 4 18 10 NNW 0
18.06.2018 12:00:00 1,3 0,9 8 4 16 9 N 5
18.06.2018 11:00:00 1,3 1,0 10 5 16 9 W 30
18.06.2018 10:00:00 0,5 0,2 8 4 22 12 N 10
18.06.2018 09:00:00 0,3 0,0 14 8 21 12 NNW 6
18.06.2018 08:00:00 0,0 0,0 13 7 25 13 N 0
18.06.2018 07:00:00 0,0 -0,1 12 7 25 13 N 0
18.06.2018 06:00:00 0,1 0,0 18 10 31 17 N 0
18.06.2018 05:00:00 0,3 0,2 19 11 32 18 N 0
18.06.2018 04:00:00 0,7 0,6 14 8 27 15 N 0
18.06.2018 03:00:00 0,7 0,6 14 8 40 22 N 0
18.06.2018 02:00:00 0,0 -0,1 27 15 39 21 NNW 0
18.06.2018 01:00:00 -0,1 -0,4 22 12 35 19 NNW 0
18.06.2018 00:00:00 1,5 1,4 14 7 27 15 NNW 0
17.06.2018 23:00:00 1,6 1,5 19 10 32 17 N 0
17.06.2018 22:00:00 1,2 1,2 17 9 32 18 NNW 0
17.06.2018 21:00:00 1,1 0,9 20 11 33 18 N 0
17.06.2018 20:00:00 3,4 3,1 9 5 28 15 NNW 4
17.06.2018 19:00:00 3,1 1,1 3 2 12 7 NNE 4
17.06.2018 18:00:00 4,3 1,9 5 3 11 6 SSW 0
17.06.2018 17:00:00 3,8 1,5 5 3 15 8 S 0
17.06.2018 16:00:00 4,1 0,9 10 5 14 7 SSW 0
17.06.2018 15:00:00 3,9 1,4 8 4 15 8 SSE 1
17.06.2018 14:00:00 2,3 0,5 3 2 11 6 ESE 8
17.06.2018 13:00:00 2,5 -1,4 6 3 13 7 N 0
17.06.2018 12:00:00 1,5 -0,2 4 2 9 5 N 0
17.06.2018 11:00:00 1,3 -1,4 4 2 13 7 N 0
17.06.2018 10:00:00 1,7 -0,9 6 3 16 9 N 39
17.06.2018 09:00:00 1,4 -2,0 9 5 23 12 N 52
17.06.2018 08:00:00 0,4 0,0 13 7 21 11 N 0
17.06.2018 07:00:00 -0,5 -1,2 13 7 24 13 N 0
17.06.2018 06:00:00 -0,1 -1,2 16 9 23 12 N 0
17.06.2018 05:00:00 -0,1 -2,7 18 10 26 14 N 0
17.06.2018 04:00:00 0,3 -4,5 18 10 28 15 N 0
17.06.2018 03:00:00 0,4 0,2 14 8 24 13 NW 0
17.06.2018 02:00:00 0,8 0,5 16 9 27 15 NW 0
17.06.2018 01:00:00 0,9 0,6 17 9 32 18 NNW 0
17.06.2018 00:00:00 0,7 0,3 17 9 27 15 WNW 0
16.06.2018 23:00:00 0,8 0,5 11 6 21 12 NW 0
16.06.2018 22:00:00 1,1 0,8 14 8 20 11 NW 7
16.06.2018 21:00:00 1,3 1,0 11 6 19 11 N 0
16.06.2018 20:00:00 1,6 1,0 13 7 20 11 N 5
16.06.2018 19:00:00 2,4 1,5 9 5 21 11 N 1
16.06.2018 18:00:00 2,5 1,6 10 5 21 12 NNW 0
16.06.2018 17:00:00 2,9 2,0 6 4 16 8 NNW 2
16.06.2018 16:00:00 4,8 1,8 9 5 19 11 SSE 44
16.06.2018 15:00:00 4,3 1,4 14 8 29 16 SE 52
16.06.2018 14:00:00 3,3 1,0 19 10 29 16 SE 50
16.06.2018 13:00:00 3,2 0,7 16 9 25 14 SE 60
16.06.2018 12:00:00 4,6 -2,3 6 3 17 9 E 54
16.06.2018 11:00:00 3,9 -13,0 5 3 10 6 NE 60
16.06.2018 10:00:00 2,3 -15,3 6 4 17 9 NNE 60
16.06.2018 09:00:00 2,4 -16,0 12 6 20 11 NE 60
16.06.2018 08:00:00 2,6 -16,1 13 7 26 14 N 60
16.06.2018 07:00:00 1,5 -17,9 14 7 23 13 N 60
16.06.2018 06:00:00 1,5 -17,3 14 8 23 12 N 30
16.06.2018 05:00:00 1,1 -19,3 13 7 15 8 N 0
16.06.2018 04:00:00 1,8 -18,1 10 6 16 9 N 0
16.06.2018 03:00:00 0,9 -18,6 5 3 7 4 N 0
16.06.2018 02:00:00 1,2 -18,2 4 2 11 6 NE 0
16.06.2018 01:00:00 0,1 -11,3 6 4 10 6 ESE 0
16.06.2018 00:00:00 1,4 -19,6 8 4 16 9 NE 0
15.06.2018 23:00:00 1,5 -17,7 7 4 16 8 N 0
15.06.2018 22:00:00 2,1 -19,3 8 4 14 7 N 18
15.06.2018 21:00:00 2,4 -19,5 8 4 13 7 N 58
15.06.2018 20:00:00 2,8 -16,4 6 4 19 10 N 49
15.06.2018 19:00:00 1,5 -1,6 9 5 21 12 NNW 25
15.06.2018 18:00:00 1,7 1,0 9 5 15 8 NNW 11
15.06.2018 17:00:00 3,8 0,8 8 5 23 12 SSE 39
15.06.2018 16:00:00 3,1 -0,5 14 8 31 17 SSE 60
15.06.2018 15:00:00 1,6 -0,5 18 10 29 16 SE 32
15.06.2018 14:00:00 1,9 -1,7 14 8 26 14 SE 26
15.06.2018 13:00:00 1,9 -3,1 8 4 24 13 ESE 58
15.06.2018 12:00:00 1,6 -7,5 12 6 21 12 E 57
15.06.2018 11:00:00 1,8 -3,8 11 6 23 12 E 60
15.06.2018 10:00:00 0,3 -11,5 10 5 25 13 NNE 60
15.06.2018 09:00:00 -0,3 -11,3 13 7 27 14 N 60
15.06.2018 08:00:00 -0,7 -11,0 14 8 29 16 N 60
15.06.2018 07:00:00 -0,9 -11,4 17 9 25 13 N 59
15.06.2018 06:00:00 -1,0 -11,6 14 8 18 10 N 27
15.06.2018 05:00:00 -4,5 -12,5 5 3 24 13 N 0
15.06.2018 04:00:00 -4,8 -11,0 19 10 34 19 N 0
15.06.2018 03:00:00 -4,9 -8,9 18 10 36 19 N 0
15.06.2018 02:00:00 -3,7 -4,4 24 13 33 18 N 0
15.06.2018 01:00:00 -1,9 -2,2 26 14 34 19 NNW 0
15.06.2018 00:00:00 -1,6 -1,7 18 10 33 18 N 0
14.06.2018 23:00:00 -0,3 -0,5 21 11 35 19 N 0
14.06.2018 22:00:00 -1,4 -5,2 14 8 20 11 N 5
14.06.2018 21:00:00 -2,2 -13,8 14 8 29 15 N 27
14.06.2018 20:00:00 -1,9 -9,3 14 8 26 14 N 26
14.06.2018 19:00:00 -1,3 -2,0 11 6 23 13 N 26
14.06.2018 18:00:00 0,2 -6,1 12 6 24 13 N 34
14.06.2018 17:00:00 1,5 -5,0 3 2 9 5 NNE 56
14.06.2018 16:00:00 0,8 -5,8 5 3 13 7 N 60
14.06.2018 15:00:00 1,0 -4,1 6 3 13 7 NE 58
14.06.2018 14:00:00 0,5 -4,6 8 4 15 8 N 60
14.06.2018 13:00:00 0,7 -4,7 7 4 21 11 N 60
14.06.2018 12:00:00 1,9 -2,3 10 5 31 17 ESE 60
14.06.2018 11:00:00 0,4 -2,6 15 8 24 13 E 60
14.06.2018 10:00:00 0,5 -2,4 14 7 27 14 E 60
14.06.2018 09:00:00 0,3 -4,8 11 6 22 12 E 60

tt = Température de l'air
td = dewpoint
ff = Vitesse du vent
fx = gusts
dd = Direction du vent
sd = Ensoleillement

stations d'obs. à proximité